PWSweather.com
Personal Weather Stations
Station Observations
KMIEASTT1
Tawas Bay, East Tawas, MI 48730

Tawas BayEast Tawas, MI 48730

Lat: 44.28, Lon: -83.48

Elevation: 600

Station Type: Davis VantagePro

http://www.tawasbayweather.com

High Low Average
Temperature 41.0°F5.0°C 29.0°F-1.7°C 36.4°F2.4°C
Dew Point 37.1°F2.8°C 22.2°F-5.4°C 32.0°F0.0°C
Winds 23.0 mph 37.0 kmh 2.0 mph 3.2 kmh 11.0 mph W17.7 kmh W
Wind Gusts 32.0 mph51.5 kmh 6.0 mph9.7 kmh 17.0 mph27.4 kmh
Humidity 95% 72% 84%
Pressure 30.00 in1015.9 mb 29.44 in997.0 mb -
Precipitation 0.00 in0.0 mm - -
Hour Temp Dew Point Humidity Winds Wind Gusts Pressure Precip Precip Rate Daily Precip Total
12:00 AM 42.3°F5.7°C 37.5°F3.1°C 83% 21.0 mph WSW33.8 kmh WSW 29.0 mph46.7 kmh 29.43 in996.6 mb 0.00 in0.0 mm 0.00 in0.0 mm 0.00 in0.0 mm
12:15 AM 41.4°F5.2°C 37.2°F2.9°C 85% 19.0 mph WSW30.6 kmh WSW 28.0 mph45.1 kmh 29.43 in996.6 mb 0.00 in0.0 mm 0.00 in0.0 mm 0.00 in0.0 mm
12:30 AM 41.2°F5.1°C 37.0°F2.8°C 85% 18.0 mph WSW29.0 kmh WSW 25.0 mph40.2 kmh 29.43 in996.6 mb 0.00 in0.0 mm 0.00 in0.0 mm 0.00 in0.0 mm
12:45 AM 40.9°F4.9°C 37.0°F2.8°C 86% 16.0 mph WSW25.7 kmh WSW 26.0 mph41.8 kmh 29.44 in997.0 mb 0.00 in0.0 mm 0.00 in0.0 mm 0.00 in0.0 mm
01:00 AM 41.0°F5.0°C 37.1°F2.8°C 86% 22.0 mph SW35.4 kmh SW 29.0 mph46.7 kmh 29.44 in997.0 mb 0.00 in0.0 mm 0.00 in0.0 mm 0.00 in0.0 mm
01:15 AM 40.4°F4.7°C 36.0°F2.2°C 84% 21.0 mph SW33.8 kmh SW 32.0 mph51.5 kmh 29.44 in997.0 mb 0.00 in0.0 mm 0.00 in0.0 mm 0.00 in0.0 mm
01:30 AM 40.0°F4.4°C 35.9°F2.2°C 85% 19.0 mph SW30.6 kmh SW 26.0 mph41.8 kmh 29.44 in997.0 mb 0.00 in0.0 mm 0.00 in0.0 mm 0.00 in0.0 mm
01:45 AM 39.7°F4.3°C 35.6°F2.0°C 85% 19.0 mph SW30.6 kmh SW 27.0 mph43.5 kmh 29.44 in997.0 mb 0.00 in0.0 mm 0.00 in0.0 mm 0.00 in0.0 mm
02:00 AM 40.1°F4.5°C 35.7°F2.1°C 84% 23.0 mph SW37.0 kmh SW 26.0 mph41.8 kmh 29.44 in997.0 mb 0.00 in0.0 mm 0.00 in0.0 mm 0.00 in0.0 mm
02:15 AM 40.0°F4.4°C 35.6°F2.0°C 84% 22.0 mph SW35.4 kmh SW 28.0 mph45.1 kmh 29.45 in997.3 mb 0.00 in0.0 mm 0.00 in0.0 mm 0.00 in0.0 mm
02:30 AM 39.5°F4.2°C 35.4°F1.9°C 85% 20.0 mph SW32.2 kmh SW 30.0 mph48.3 kmh 29.45 in997.3 mb 0.00 in0.0 mm 0.00 in0.0 mm 0.00 in0.0 mm
02:45 AM 39.7°F4.3°C 35.6°F2.0°C 85% 23.0 mph SW37.0 kmh SW 28.0 mph45.1 kmh 29.45 in997.3 mb 0.00 in0.0 mm 0.00 in0.0 mm 0.00 in0.0 mm
03:00 AM 39.6°F4.2°C 35.8°F2.1°C 86% 17.0 mph SW27.4 kmh SW 28.0 mph45.1 kmh 29.46 in997.6 mb 0.00 in0.0 mm 0.00 in0.0 mm 0.00 in0.0 mm
03:15 AM 39.5°F4.2°C 35.7°F2.1°C 86% 21.0 mph SW33.8 kmh SW 26.0 mph41.8 kmh 29.46 in997.6 mb 0.00 in0.0 mm 0.00 in0.0 mm 0.00 in0.0 mm
03:30 AM 39.4°F4.1°C 35.3°F1.8°C 85% 16.0 mph SW25.7 kmh SW 31.0 mph49.9 kmh 29.47 in998.0 mb 0.00 in0.0 mm 0.00 in0.0 mm 0.00 in0.0 mm
03:45 AM 39.1°F3.9°C 35.3°F1.8°C 86% 21.0 mph SW33.8 kmh SW 28.0 mph45.1 kmh 29.47 in998.0 mb 0.00 in0.0 mm 0.00 in0.0 mm 0.00 in0.0 mm
04:00 AM 39.0°F3.9°C 35.2°F1.8°C 86% 14.0 mph WSW22.5 kmh WSW 22.0 mph35.4 kmh 29.48 in998.3 mb 0.00 in0.0 mm 0.00 in0.0 mm 0.00 in0.0 mm
04:15 AM 38.8°F3.8°C 35.3°F1.8°C 87% 23.0 mph SW37.0 kmh SW 27.0 mph43.5 kmh 29.48 in998.3 mb 0.00 in0.0 mm 0.00 in0.0 mm 0.00 in0.0 mm
04:30 AM 38.7°F3.7°C 35.2°F1.8°C 87% 21.0 mph SW33.8 kmh SW 24.0 mph38.6 kmh 29.48 in998.3 mb 0.00 in0.0 mm 0.00 in0.0 mm 0.00 in0.0 mm
04:45 AM 38.8°F3.8°C 35.3°F1.8°C 87% 22.0 mph WSW35.4 kmh WSW 26.0 mph41.8 kmh 29.49 in998.6 mb 0.00 in0.0 mm 0.00 in0.0 mm 0.00 in0.0 mm
05:00 AM 38.4°F3.6°C 35.2°F1.8°C 88% 17.0 mph WSW27.4 kmh WSW 28.0 mph45.1 kmh 29.49 in998.6 mb 0.00 in0.0 mm 0.00 in0.0 mm 0.00 in0.0 mm
05:15 AM 38.5°F3.6°C 35.6°F2.0°C 89% 16.0 mph WSW25.7 kmh WSW 29.0 mph46.7 kmh 29.49 in998.6 mb 0.00 in0.0 mm 0.00 in0.0 mm 0.00 in0.0 mm
05:30 AM 38.1°F3.4°C 35.4°F1.9°C 90% 16.0 mph SW25.7 kmh SW 25.0 mph40.2 kmh 29.50 in999.0 mb 0.00 in0.0 mm 0.00 in0.0 mm 0.00 in0.0 mm
05:45 AM 37.7°F3.2°C 35.0°F1.7°C 90% 23.0 mph SW37.0 kmh SW 24.0 mph38.6 kmh 29.50 in999.0 mb 0.00 in0.0 mm 0.00 in0.0 mm 0.00 in0.0 mm
06:00 AM 37.7°F3.2°C 35.3°F1.8°C 91% 18.0 mph SW29.0 kmh SW 25.0 mph40.2 kmh 29.51 in999.3 mb 0.00 in0.0 mm 0.00 in0.0 mm 0.00 in0.0 mm
06:15 AM 37.8°F3.2°C 35.1°F1.7°C 90% 19.0 mph WSW30.6 kmh WSW 20.0 mph32.2 kmh 29.51 in999.3 mb 0.00 in0.0 mm 0.00 in0.0 mm 0.00 in0.0 mm
06:30 AM 37.9°F3.3°C 35.2°F1.8°C 90% 17.0 mph WSW27.4 kmh WSW 20.0 mph32.2 kmh 29.50 in999.0 mb 0.00 in0.0 mm 0.00 in0.0 mm 0.00 in0.0 mm
06:45 AM 38.0°F3.3°C 35.3°F1.8°C 90% 18.0 mph WSW29.0 kmh WSW 20.0 mph32.2 kmh 29.51 in999.3 mb 0.00 in0.0 mm 0.00 in0.0 mm 0.00 in0.0 mm
07:00 AM 37.6°F3.1°C 35.2°F1.8°C 91% 11.0 mph WSW17.7 kmh WSW 20.0 mph32.2 kmh 29.52 in999.7 mb 0.00 in0.0 mm 0.00 in0.0 mm 0.00 in0.0 mm
07:15 AM 37.6°F3.1°C 35.5°F1.9°C 92% 12.0 mph SW19.3 kmh SW 21.0 mph33.8 kmh 29.53 in1000.0 mb 0.00 in0.0 mm 0.00 in0.0 mm 0.00 in0.0 mm
07:30 AM 37.6°F3.1°C 35.8°F2.1°C 93% 15.0 mph WSW24.1 kmh WSW 20.0 mph32.2 kmh 29.54 in1000.3 mb 0.00 in0.0 mm 0.00 in0.0 mm 0.00 in0.0 mm
07:45 AM 37.6°F3.1°C 35.5°F1.9°C 92% 13.0 mph WSW20.9 kmh WSW 20.0 mph32.2 kmh 29.55 in1000.7 mb 0.00 in0.0 mm 0.00 in0.0 mm 0.00 in0.0 mm
08:00 AM 37.6°F3.1°C 35.5°F1.9°C 92% 18.0 mph SW29.0 kmh SW 20.0 mph32.2 kmh 29.56 in1001.0 mb 0.00 in0.0 mm 0.00 in0.0 mm 0.00 in0.0 mm
08:15 AM 37.1°F2.8°C 35.3°F1.8°C 93% 12.0 mph WSW19.3 kmh WSW 15.0 mph24.1 kmh 29.57 in1001.4 mb 0.00 in0.0 mm 0.00 in0.0 mm 0.00 in0.0 mm
08:30 AM 37.1°F2.8°C 35.3°F1.8°C 93% 14.0 mph WSW22.5 kmh WSW 17.0 mph27.4 kmh 29.57 in1001.4 mb 0.00 in0.0 mm 0.00 in0.0 mm 0.00 in0.0 mm
08:45 AM 37.1°F2.8°C 35.5°F1.9°C 94% 13.0 mph SW20.9 kmh SW 17.0 mph27.4 kmh 29.58 in1001.7 mb 0.00 in0.0 mm 0.00 in0.0 mm 0.00 in0.0 mm
09:00 AM 37.0°F2.8°C 35.4°F1.9°C 94% 10.0 mph SW16.1 kmh SW 18.0 mph29.0 kmh 29.58 in1001.7 mb 0.00 in0.0 mm 0.00 in0.0 mm 0.00 in0.0 mm
09:15 AM 37.0°F2.8°C 35.4°F1.9°C 94% 15.0 mph SW24.1 kmh SW 19.0 mph30.6 kmh 29.59 in1002.0 mb 0.00 in0.0 mm 0.00 in0.0 mm 0.00 in0.0 mm
09:30 AM 36.7°F2.6°C 35.1°F1.7°C 94% 13.0 mph SW20.9 kmh SW 16.0 mph25.7 kmh 29.60 in1002.4 mb 0.00 in0.0 mm 0.00 in0.0 mm 0.00 in0.0 mm
09:45 AM 37.0°F2.8°C 35.7°F2.1°C 95% 13.0 mph SW20.9 kmh SW 17.0 mph27.4 kmh 29.60 in1002.4 mb 0.00 in0.0 mm 0.00 in0.0 mm 0.00 in0.0 mm
10:00 AM 36.9°F2.7°C 35.3°F1.8°C 94% 15.0 mph WSW24.1 kmh WSW 15.0 mph24.1 kmh 29.61 in1002.7 mb 0.00 in0.0 mm 0.00 in0.0 mm 0.00 in0.0 mm
10:15 AM 37.2°F2.9°C 35.6°F2.0°C 94% 15.0 mph WSW24.1 kmh WSW 17.0 mph27.4 kmh 29.62 in1003.0 mb 0.00 in0.0 mm 0.00 in0.0 mm 0.00 in0.0 mm
10:30 AM 37.5°F3.1°C 35.9°F2.2°C 94% 11.0 mph SW17.7 kmh SW 15.0 mph24.1 kmh 29.62 in1003.0 mb 0.00 in0.0 mm 0.00 in0.0 mm 0.00 in0.0 mm
10:45 AM 37.3°F2.9°C 35.5°F1.9°C 93% 11.0 mph WSW17.7 kmh WSW 16.0 mph25.7 kmh 29.63 in1003.4 mb 0.00 in0.0 mm 0.00 in0.0 mm 0.00 in0.0 mm
11:00 AM 37.4°F3.0°C 35.6°F2.0°C 93% 8.0 mph WSW12.9 kmh WSW 13.0 mph20.9 kmh 29.64 in1003.7 mb 0.00 in0.0 mm 0.00 in0.0 mm 0.00 in0.0 mm
11:15 AM 37.7°F3.2°C 35.9°F2.2°C 93% 9.0 mph WSW14.5 kmh WSW 12.0 mph19.3 kmh 29.64 in1003.7 mb 0.00 in0.0 mm 0.00 in0.0 mm 0.00 in0.0 mm
11:30 AM 37.9°F3.3°C 35.8°F2.1°C 92% 11.0 mph WSW17.7 kmh WSW 13.0 mph20.9 kmh 29.64 in1003.7 mb 0.00 in0.0 mm 0.00 in0.0 mm 0.00 in0.0 mm
11:45 AM 37.4°F3.0°C 35.6°F2.0°C 93% 9.0 mph WSW14.5 kmh WSW 11.0 mph17.7 kmh 29.65 in1004.1 mb 0.00 in0.0 mm 0.00 in0.0 mm 0.00 in0.0 mm
12:00 PM 37.0°F2.8°C 35.4°F1.9°C 94% 9.0 mph W14.5 kmh W 12.0 mph19.3 kmh 29.66 in1004.4 mb 0.00 in0.0 mm 0.00 in0.0 mm 0.00 in0.0 mm
12:15 PM 37.6°F3.1°C 36.0°F2.2°C 94% 5.0 mph W8.0 kmh W 10.0 mph16.1 kmh 29.66 in1004.4 mb 0.00 in0.0 mm 0.00 in0.0 mm 0.00 in0.0 mm
12:30 PM 37.9°F3.3°C 36.1°F2.3°C 93% 4.0 mph WSW6.4 kmh WSW 7.0 mph11.3 kmh 29.66 in1004.4 mb 0.00 in0.0 mm 0.00 in0.0 mm 0.00 in0.0 mm
12:45 PM 38.2°F3.4°C 36.1°F2.3°C 92% 3.0 mph W4.8 kmh W 8.0 mph12.9 kmh 29.66 in1004.4 mb 0.00 in0.0 mm 0.00 in0.0 mm 0.00 in0.0 mm
01:00 PM 38.2°F3.4°C 36.1°F2.3°C 92% 2.0 mph W3.2 kmh W 7.0 mph11.3 kmh 29.66 in1004.4 mb 0.00 in0.0 mm 0.00 in0.0 mm 0.00 in0.0 mm
01:15 PM 36.9°F2.7°C 34.5°F1.4°C 91% 3.0 mph WSW4.8 kmh WSW 6.0 mph9.7 kmh 29.66 in1004.4 mb 0.00 in0.0 mm 0.00 in0.0 mm 0.00 in0.0 mm
01:30 PM 36.4°F2.4°C 34.3°F1.3°C 92% 3.0 mph SW4.8 kmh SW 6.0 mph9.7 kmh 29.67 in1004.7 mb 0.00 in0.0 mm 0.00 in0.0 mm 0.00 in0.0 mm
01:45 PM 35.8°F2.1°C 33.7°F0.9°C 92% 4.0 mph WSW6.4 kmh WSW 7.0 mph11.3 kmh 29.67 in1004.7 mb 0.00 in0.0 mm 0.00 in0.0 mm 0.00 in0.0 mm
02:00 PM 39.7°F4.3°C 35.6°F2.0°C 85% 2.0 mph W3.2 kmh W 10.0 mph16.1 kmh 29.67 in1004.7 mb 0.00 in0.0 mm 0.00 in0.0 mm 0.00 in0.0 mm
02:15 PM 40.4°F4.7°C 35.4°F1.9°C 82% 4.0 mph WNW6.4 kmh WNW 6.0 mph9.7 kmh 29.68 in1005.1 mb 0.00 in0.0 mm 0.00 in0.0 mm 0.00 in0.0 mm
02:30 PM 40.7°F4.8°C 34.4°F1.3°C 78% 8.0 mph NW12.9 kmh NW 10.0 mph16.1 kmh 29.68 in1005.1 mb 0.00 in0.0 mm 0.00 in0.0 mm 0.00 in0.0 mm
02:45 PM 40.9°F4.9°C 34.3°F1.3°C 77% 4.0 mph WNW6.4 kmh WNW 9.0 mph14.5 kmh 29.68 in1005.1 mb 0.00 in0.0 mm 0.00 in0.0 mm 0.00 in0.0 mm
03:00 PM 40.7°F4.8°C 34.1°F1.2°C 77% 4.0 mph NW6.4 kmh NW 9.0 mph14.5 kmh 29.69 in1005.4 mb 0.00 in0.0 mm 0.00 in0.0 mm 0.00 in0.0 mm
03:15 PM 39.8°F4.3°C 33.8°F1.0°C 79% 7.0 mph WNW11.3 kmh WNW 11.0 mph17.7 kmh 29.69 in1005.4 mb 0.00 in0.0 mm 0.00 in0.0 mm 0.00 in0.0 mm
03:30 PM 39.5°F4.2°C 33.5°F0.8°C 79% 8.0 mph NW12.9 kmh NW 12.0 mph19.3 kmh 29.70 in1005.8 mb 0.00 in0.0 mm 0.00 in0.0 mm 0.00 in0.0 mm
03:45 PM 38.8°F3.8°C 33.5°F0.8°C 81% 5.0 mph WNW8.0 kmh WNW 15.0 mph24.1 kmh 29.71 in1006.1 mb 0.00 in0.0 mm 0.00 in0.0 mm 0.00 in0.0 mm
04:00 PM 38.1°F3.4°C 33.1°F0.6°C 82% 7.0 mph NW11.3 kmh NW 11.0 mph17.7 kmh 29.72 in1006.4 mb 0.00 in0.0 mm 0.00 in0.0 mm 0.00 in0.0 mm
04:15 PM 38.0°F3.3°C 32.1°F0.1°C 79% 4.0 mph W6.4 kmh W 12.0 mph19.3 kmh 29.72 in1006.4 mb 0.00 in0.0 mm 0.00 in0.0 mm 0.00 in0.0 mm
04:30 PM 38.0°F3.3°C 31.8°F-0.1°C 78% 6.0 mph W9.7 kmh W 14.0 mph22.5 kmh 29.73 in1006.8 mb 0.00 in0.0 mm 0.00 in0.0 mm 0.00 in0.0 mm
04:45 PM 37.5°F3.1°C 31.6°F-0.2°C 79% 6.0 mph WNW9.7 kmh WNW 16.0 mph25.7 kmh 29.74 in1007.1 mb 0.00 in0.0 mm 0.00 in0.0 mm 0.00 in0.0 mm
05:00 PM 37.3°F2.9°C 31.7°F-0.2°C 80% 2.0 mph NW3.2 kmh NW 9.0 mph14.5 kmh 29.75 in1007.5 mb 0.00 in0.0 mm 0.00 in0.0 mm 0.00 in0.0 mm
05:15 PM 37.0°F2.8°C 31.1°F-0.5°C 79% 6.0 mph NW9.7 kmh NW 11.0 mph17.7 kmh 29.76 in1007.8 mb 0.00 in0.0 mm 0.00 in0.0 mm 0.00 in0.0 mm
05:30 PM 36.4°F2.4°C 30.2°F-1.0°C 78% 9.0 mph W14.5 kmh W 16.0 mph25.7 kmh 29.77 in1008.1 mb 0.00 in0.0 mm 0.00 in0.0 mm 0.00 in0.0 mm
05:45 PM 36.0°F2.2°C 29.8°F-1.2°C 78% 9.0 mph W14.5 kmh W 12.0 mph19.3 kmh 29.78 in1008.5 mb 0.00 in0.0 mm 0.00 in0.0 mm 0.00 in0.0 mm
06:01 PM 35.5°F1.9°C 29.0°F-1.7°C 77% 10.0 mph WNW16.1 kmh WNW 17.0 mph27.4 kmh 29.79 in1008.8 mb 0.00 in0.0 mm 0.00 in0.0 mm 0.00 in0.0 mm
06:15 PM 35.4°F1.9°C 28.6°F-1.9°C 76% 7.0 mph WNW11.3 kmh WNW 20.0 mph32.2 kmh 29.80 in1009.1 mb 0.00 in0.0 mm 0.00 in0.0 mm 0.00 in0.0 mm
06:30 PM 34.8°F1.6°C 27.7°F-2.4°C 75% 11.0 mph W17.7 kmh W 22.0 mph35.4 kmh 29.81 in1009.5 mb 0.00 in0.0 mm 0.00 in0.0 mm 0.00 in0.0 mm
06:45 PM 34.5°F1.4°C 28.1°F-2.2°C 77% 13.0 mph NW20.9 kmh NW 16.0 mph25.7 kmh 29.82 in1009.8 mb 0.00 in0.0 mm 0.00 in0.0 mm 0.00 in0.0 mm
07:00 PM 34.3°F1.3°C 27.9°F-2.3°C 77% 9.0 mph WNW14.5 kmh WNW 13.0 mph20.9 kmh 29.83 in1010.2 mb 0.00 in0.0 mm 0.00 in0.0 mm 0.00 in0.0 mm
07:15 PM 34.1°F1.2°C 27.3°F-2.6°C 76% 19.0 mph NW30.6 kmh NW 19.0 mph30.6 kmh 29.84 in1010.5 mb 0.00 in0.0 mm 0.00 in0.0 mm 0.00 in0.0 mm
07:30 PM 33.9°F1.1°C 26.8°F-2.9°C 75% 3.0 mph WSW4.8 kmh WSW 17.0 mph27.4 kmh 29.85 in1010.8 mb 0.00 in0.0 mm 0.00 in0.0 mm 0.00 in0.0 mm
07:45 PM 33.8°F1.0°C 26.4°F-3.1°C 74% 8.0 mph NW12.9 kmh NW 12.0 mph19.3 kmh 29.86 in1011.2 mb 0.00 in0.0 mm 0.00 in0.0 mm 0.00 in0.0 mm
08:00 PM 33.7°F0.9°C 26.3°F-3.2°C 74% 7.0 mph WNW11.3 kmh WNW 10.0 mph16.1 kmh 29.86 in1011.2 mb 0.00 in0.0 mm 0.00 in0.0 mm 0.00 in0.0 mm
08:15 PM 33.6°F0.9°C 26.2°F-3.2°C 74% 12.0 mph W19.3 kmh W 15.0 mph24.1 kmh 29.88 in1011.9 mb 0.00 in0.0 mm 0.00 in0.0 mm 0.00 in0.0 mm
08:30 PM 33.5°F0.8°C 26.1°F-3.3°C 74% 14.0 mph NW22.5 kmh NW 17.0 mph27.4 kmh 29.88 in1011.9 mb 0.00 in0.0 mm 0.00 in0.0 mm 0.00 in0.0 mm
08:45 PM 33.3°F0.7°C 26.3°F-3.2°C 75% 6.0 mph NNW9.7 kmh NNW 15.0 mph24.1 kmh 29.90 in1012.5 mb 0.00 in0.0 mm 0.00 in0.0 mm 0.00 in0.0 mm
09:00 PM 32.7°F0.4°C 26.0°F-3.3°C 76% 5.0 mph N8.0 kmh N 10.0 mph16.1 kmh 29.91 in1012.9 mb 0.00 in0.0 mm 0.00 in0.0 mm 0.00 in0.0 mm
09:15 PM 32.3°F0.2°C 25.3°F-3.7°C 75% 7.0 mph W11.3 kmh W 12.0 mph19.3 kmh 29.92 in1013.2 mb 0.00 in0.0 mm 0.00 in0.0 mm 0.00 in0.0 mm
09:30 PM 31.8°F-0.1°C 24.5°F-4.2°C 74% 4.0 mph NW6.4 kmh NW 14.0 mph22.5 kmh 29.92 in1013.2 mb 0.00 in0.0 mm 0.00 in0.0 mm 0.00 in0.0 mm
09:45 PM 31.3°F-0.4°C 24.0°F-4.4°C 74% 3.0 mph WNW4.8 kmh WNW 8.0 mph12.9 kmh 29.93 in1013.5 mb 0.00 in0.0 mm 0.00 in0.0 mm 0.00 in0.0 mm
10:00 PM 31.0°F-0.6°C 23.7°F-4.6°C 74% 7.0 mph NW11.3 kmh NW 15.0 mph24.1 kmh 29.94 in1013.9 mb 0.00 in0.0 mm 0.00 in0.0 mm 0.00 in0.0 mm
10:15 PM 30.8°F-0.7°C 23.5°F-4.7°C 74% 14.0 mph WNW22.5 kmh WNW 15.0 mph24.1 kmh 29.95 in1014.2 mb 0.00 in0.0 mm 0.00 in0.0 mm 0.00 in0.0 mm
10:30 PM 30.8°F-0.7°C 22.9°F-5.1°C 72% 12.0 mph NW19.3 kmh NW 17.0 mph27.4 kmh 29.95 in1014.2 mb 0.00 in0.0 mm 0.00 in0.0 mm 0.00 in0.0 mm
10:45 PM 30.4°F-0.9°C 22.8°F-5.1°C 73% 9.0 mph W14.5 kmh W 16.0 mph25.7 kmh 29.96 in1014.6 mb 0.00 in0.0 mm 0.00 in0.0 mm 0.00 in0.0 mm
11:00 PM 30.0°F-1.1°C 22.7°F-5.2°C 74% 8.0 mph NW12.9 kmh NW 14.0 mph22.5 kmh 29.96 in1014.6 mb 0.00 in0.0 mm 0.00 in0.0 mm 0.00 in0.0 mm
11:15 PM 29.8°F-1.2°C 22.9°F-5.1°C 75% 4.0 mph NW6.4 kmh NW 17.0 mph27.4 kmh 29.97 in1014.9 mb 0.00 in0.0 mm 0.00 in0.0 mm 0.00 in0.0 mm
11:30 PM 29.7°F-1.3°C 23.1°F-4.9°C 76% 6.0 mph WNW9.7 kmh WNW 10.0 mph16.1 kmh 29.98 in1015.2 mb 0.00 in0.0 mm 0.00 in0.0 mm 0.00 in0.0 mm
11:45 PM 29.5°F-1.4°C 22.9°F-5.1°C 76% 15.0 mph NW24.1 kmh NW 17.0 mph27.4 kmh 29.98 in1015.2 mb 0.00 in0.0 mm 0.00 in0.0 mm 0.00 in0.0 mm